Bemidji Regional Airport Bemidji US
ICAO: KBJI
IATA: BJI
Category: Medium
Scheduled Services: No

Elevation: 1391 ft
TransAlt. 18000 ft.

Airport Communications:
AWOS 3:119.275
MINNEAPOLIS CNTR:134.75
PRINCETON RDO:123.6
CTAF/UNICOM:122.8

KBJI Zoom In..

If you have problems with the map follow the link
https://www.worldairports.se/pages/airport.php?
ICAO=KBJI

Runways:

(A) RW 07 length 5700 ft width 150 ft
---- / hdg 70

(B) RW 13 length 7004 ft width 150 ft
---- / hdg 130

(C) RW 25 length 5700 ft width 150 ft
ILS 109.35 / hdg 250

(D) RW 31 length 7004 ft width 150 ft
ILS 111.90 / hdg 310

Location; KBJI
Day. 17 / Time. 02.55 Zulu
* Altimeter: 30.23
* Temperature: -09° c. -15.8°f.
* Wind from: 340° Speed 03 kn.
Dewpoint: -11° c.
Visibility: 10 Statute Miles.
Clouds: Overcast 2600 ft.
Conditions: Light Snow.

KBJI 170255Z AUTO 34003KT 10SM -SN OVC026 M09/M11 A3023 RMK AO2 T10871108


Wind From 340°
Speed 03 kn.

 
 
jpsmedia.com for Web Design worldairports.se 2018   terms of use